Time;durP1;ratioP1;P1;durP2;ratioP2;P2;SDS_P1;SDS_P2;PMS_P1;PMS_P2;Temp;Humidity;BMP_temperature;BMP_pressure;BME280_temperature;BME280_humidity;BME280_pressure;Samples;Min_cycle;Max_cycle;Signal;HPM_P1;HPM_P2
2022/09/18 00:01:23;;;;;;;3.17;1.87;;;11.90;99.90;;;;;;6156713;23;20513;-87
2022/09/18 00:03:50;;;;;;;5.97;1.63;;;11.90;99.90;;;;;;6156703;23;20403;-87
2022/09/18 00:06:19;;;;;;;7.37;1.53;;;11.90;99.90;;;;;;6156158;23;20481;-88
2022/09/18 00:08:48;;;;;;;3.73;1.80;;;11.90;99.90;;;;;;6156668;23;20406;-87
2022/09/18 00:11:15;;;;;;;5.70;1.90;;;11.90;99.90;;;;;;6161251;23;20447;-86
2022/09/18 00:13:43;;;;;;;5.20;1.60;;;11.90;99.90;;;;;;6161986;23;20406;-86
2022/09/18 00:16:12;;;;;;;2.67;1.50;;;11.90;99.90;;;;;;6174103;23;20397;-86
2022/09/18 00:18:40;;;;;;;4.63;1.63;;;11.80;99.90;;;;;;6181990;23;20466;-87
2022/09/18 00:21:09;;;;;;;3.67;1.30;;;11.90;99.90;;;;;;6165017;23;20442;-86
2022/09/18 00:23:36;;;;;;;3.03;2.10;;;11.80;99.90;;;;;;6160398;23;20411;-86
2022/09/18 00:26:04;;;;;;;3.40;2.00;;;11.80;99.90;;;;;;6173386;23;20450;-86
2022/09/18 00:28:31;;;;;;;4.93;1.53;;;11.90;99.90;;;;;;6159371;23;20415;-85
2022/09/18 00:31:04;;;;;;;10.17;2.20;;;11.90;99.90;;;;;;6161318;23;20420;-87
2022/09/18 00:33:31;;;;;;;7.20;2.10;;;11.80;99.90;;;;;;6181571;23;20411;-86
2022/09/18 00:36:02;;;;;;;2.50;1.50;;;11.80;99.90;;;;;;6183685;23;20399;-87
2022/09/18 00:38:30;;;;;;;2.90;1.70;;;11.90;99.90;;;;;;6173311;23;20398;-86
2022/09/18 00:40:57;;;;;;;5.70;2.00;;;11.80;99.90;;;;;;6157976;23;20502;-86
2022/09/18 00:43:26;;;;;;;8.43;1.83;;;11.90;99.90;;;;;;6172499;23;20411;-86
2022/09/18 00:45:57;;;;;;;4.50;1.67;;;11.90;99.90;;;;;;6158697;23;20432;-86
2022/09/18 00:48:35;;;;;;;6.90;2.20;;;11.90;99.90;;;;;;6156890;23;20386;-86
2022/09/18 00:51:03;;;;;;;4.77;2.10;;;11.90;99.90;;;;;;6156135;23;20434;-86
2022/09/18 00:53:30;;;;;;;3.80;2.10;;;11.80;99.90;;;;;;6155673;23;20426;-86
2022/09/18 00:56:00;;;;;;;5.33;2.00;;;11.80;99.90;;;;;;6155971;23;20435;-86
2022/09/18 00:58:27;;;;;;;3.13;1.87;;;11.90;99.90;;;;;;6164087;23;20391;-86
2022/09/18 01:00:54;;;;;;;5.50;2.30;;;11.90;99.90;;;;;;6159032;23;20453;-86
2022/09/18 01:03:21;;;;;;;7.63;2.20;;;11.80;99.90;;;;;;6156083;23;20415;-85
2022/09/18 01:06:02;;;;;;;5.60;2.03;;;11.90;99.90;;;;;;6155676;23;20392;-86
2022/09/18 01:08:38;;;;;;;3.47;1.60;;;11.90;99.90;;;;;;6155908;23;20474;-86
2022/09/18 01:11:32;;;;;;;10.80;2.50;;;11.90;99.90;;;;;;6156104;23;20438;-86
2022/09/18 01:14:19;;;;;;;4.30;1.67;;;12.00;99.90;;;;;;6146594;23;20419;-86
2022/09/18 01:16:55;;;;;;;5.67;1.80;;;11.90;99.90;;;;;;6155482;23;20390;-86
2022/09/18 01:19:38;;;;;;;4.70;2.47;;;11.90;99.90;;;;;;6158915;23;20726;-87
2022/09/18 01:22:20;;;;;;;4.60;1.70;;;11.90;99.90;;;;;;6156888;23;20757;-86
2022/09/18 01:24:58;;;;;;;5.00;1.67;;;11.90;99.90;;;;;;6157686;23;20391;-86
2022/09/18 01:27:33;;;;;;;8.17;2.30;;;11.90;99.90;;;;;;6159935;23;20435;-86
2022/09/18 01:30:06;;;;;;;7.70;1.87;;;11.80;99.90;;;;;;6178527;23;20402;-86
2022/09/18 01:32:41;;;;;;;3.20;1.67;;;11.80;99.90;;;;;;6157360;23;20748;-86
2022/09/18 01:35:13;;;;;;;6.83;2.70;;;11.80;99.90;;;;;;6159126;23;20727;-86
2022/09/18 01:37:46;;;;;;;4.83;1.50;;;11.80;99.90;;;;;;6162593;23;20463;-86
2022/09/18 01:40:18;;;;;;;2.80;1.40;;;11.80;99.90;;;;;;6172377;23;20383;-86
2022/09/18 01:42:48;;;;;;;4.03;1.50;;;11.80;99.90;;;;;;6171996;23;20459;-86
2022/09/18 01:45:20;;;;;;;5.03;1.63;;;11.80;99.90;;;;;;6165965;23;20415;-86
2022/09/18 01:47:58;;;;;;;4.40;1.90;;;11.80;99.90;;;;;;6183150;23;20446;-87
2022/09/18 01:50:28;;;;;;;6.53;1.50;;;11.70;99.90;;;;;;6182585;23;20383;-87
2022/09/18 01:53:00;;;;;;;3.40;1.60;;;11.80;99.90;;;;;;6178350;23;20415;-87
2022/09/18 01:55:29;;;;;;;5.07;1.87;;;11.80;99.90;;;;;;6167442;23;20415;-87
2022/09/18 01:58:02;;;;;;;5.10;1.80;;;11.70;99.90;;;;;;6162418;23;20415;-87
2022/09/18 02:00:30;;;;;;;4.70;1.20;;;11.70;99.90;;;;;;6162924;23;20441;-88
2022/09/18 02:03:02;;;;;;;2.63;1.10;;;11.70;99.90;;;;;;6159602;23;20454;-87
2022/09/18 02:05:32;;;;;;;4.43;2.00;;;11.60;99.90;;;;;;6181657;23;20456;-87
2022/09/18 02:08:07;;;;;;;3.20;1.70;;;11.60;99.90;;;;;;6183367;23;20415;-88
2022/09/18 02:10:43;;;;;;;4.67;1.80;;;11.70;99.90;;;;;;6161927;23;20431;-88
2022/09/18 02:13:13;;;;;;;2.60;1.50;;;11.70;99.90;;;;;;6158203;23;20375;-88
2022/09/18 02:15:44;;;;;;;6.33;2.80;;;11.70;99.90;;;;;;6169131;23;20370;-86
2022/09/18 02:18:16;;;;;;;3.50;1.93;;;11.60;99.90;;;;;;6182174;23;20399;-87
2022/09/18 02:20:44;;;;;;;4.50;1.80;;;11.70;99.90;;;;;;6161503;23;20451;-86
2022/09/18 02:23:12;;;;;;;4.13;2.20;;;11.60;99.90;;;;;;6160361;23;20418;-88
2022/09/18 02:25:44;;;;;;;4.80;1.23;;;11.70;99.90;;;;;;6159026;23;20417;-87
2022/09/18 02:28:13;;;;;;;5.40;1.50;;;11.60;99.90;;;;;;6156986;23;20430;-88
2022/09/18 02:30:42;;;;;;;3.03;2.20;;;11.60;99.90;;;;;;6157936;23;20507;-86
2022/09/18 02:33:24;;;;;;;4.60;1.73;;;11.60;99.90;;;;;;6162136;23;20635;-88
2022/09/18 02:35:57;;;;;;;4.00;1.80;;;11.70;99.90;;;;;;6173553;23;20391;-85
2022/09/18 02:38:31;;;;;;;4.80;1.73;;;11.70;99.90;;;;;;6159197;23;20392;-86
2022/09/18 02:41:02;;;;;;;3.27;1.70;;;11.70;99.90;;;;;;6157453;23;20415;-88
2022/09/18 02:43:42;;;;;;;6.13;1.40;;;11.70;99.90;;;;;;6157104;23;20486;-86
2022/09/18 02:46:16;;;;;;;4.33;1.67;;;11.60;99.90;;;;;;6166289;23;20414;-86
2022/09/18 02:48:53;;;;;;;2.67;1.80;;;11.70;99.90;;;;;;6179313;23;20399;-87
2022/09/18 02:51:28;;;;;;;2.60;1.60;;;11.60;99.90;;;;;;6181057;23;20434;-87
2022/09/18 02:54:03;;;;;;;6.43;2.27;;;11.70;99.90;;;;;;6162252;23;20434;-88
2022/09/18 02:56:38;;;;;;;4.47;1.77;;;11.70;99.90;;;;;;6157743;23;20446;-87
2022/09/18 02:59:09;;;;;;;3.03;1.40;;;11.60;99.90;;;;;;6175005;23;20371;-87
2022/09/18 03:01:40;;;;;;;3.30;1.47;;;11.60;99.90;;;;;;6170848;23;20572;-87
2022/09/18 03:04:12;;;;;;;4.03;1.47;;;11.60;99.90;;;;;;6158580;23;20395;-87
2022/09/18 03:06:39;;;;;;;3.43;1.43;;;11.60;99.90;;;;;;6158353;23;20428;-87
2022/09/18 03:09:06;;;;;;;2.30;1.43;;;11.60;99.90;;;;;;6157963;23;20418;-87
2022/09/18 03:11:33;;;;;;;3.90;1.50;;;11.60;99.90;;;;;;6158008;23;20439;-87
2022/09/18 03:14:00;;;;;;;3.50;1.33;;;11.60;99.90;;;;;;6161274;23;20407;-86
2022/09/18 03:16:26;;;;;;;4.83;1.60;;;11.60;99.90;;;;;;6161877;23;20418;-87
2022/09/18 03:18:58;;;;;;;2.40;1.50;;;11.60;99.90;;;;;;6174166;23;20406;-88
2022/09/18 03:21:25;;;;;;;2.90;1.10;;;11.50;99.90;;;;;;6166855;23;20427;-88
2022/09/18 03:23:51;;;;;;;4.40;1.57;;;11.60;99.90;;;;;;6156692;23;20898;-88
2022/09/18 03:26:19;;;;;;;3.97;1.50;;;11.60;99.90;;;;;;6166392;23;20467;-88
2022/09/18 03:28:46;;;;;;;3.10;1.20;;;11.60;99.90;;;;;;6160117;23;20486;-87
2022/09/18 03:31:13;;;;;;;2.40;1.60;;;11.50;99.90;;;;;;6164221;23;20514;-86
2022/09/18 03:33:40;;;;;;;3.77;1.37;;;11.60;99.90;;;;;;6157885;23;20408;-87
2022/09/18 03:36:08;;;;;;;2.40;1.60;;;11.60;99.90;;;;;;6156038;23;20406;-86
2022/09/18 03:38:37;;;;;;;6.70;1.27;;;11.60;99.90;;;;;;6157424;23;20404;-87
2022/09/18 03:41:04;;;;;;;1.40;1.10;;;11.60;99.90;;;;;;6157198;23;20424;-86
2022/09/18 03:43:31;;;;;;;2.43;1.40;;;11.60;99.90;;;;;;6158136;23;20407;-87
2022/09/18 03:45:57;;;;;;;2.37;1.30;;;11.50;99.90;;;;;;6161073;23;20407;-86
2022/09/18 03:48:24;;;;;;;3.43;1.33;;;11.50;99.90;;;;;;6157274;23;20450;-87
2022/09/18 03:50:51;;;;;;;1.90;1.20;;;11.60;99.90;;;;;;6157514;23;20445;-87
2022/09/18 03:53:19;;;;;;;2.90;1.23;;;11.50;99.90;;;;;;6156238;23;20729;-87
2022/09/18 03:55:48;;;;;;;2.47;1.20;;;11.60;99.90;;;;;;6171862;23;20435;-87
2022/09/18 03:58:15;;;;;;;3.70;1.77;;;11.60;99.90;;;;;;6159264;23;20422;-87
2022/09/18 04:00:42;;;;;;;2.50;1.63;;;11.60;99.90;;;;;;6160022;23;20432;-86
2022/09/18 04:03:09;;;;;;;2.20;1.40;;;11.60;99.90;;;;;;6163025;23;20429;-87
2022/09/18 04:05:35;;;;;;;3.87;1.20;;;11.60;99.90;;;;;;6160728;23;20410;-86
2022/09/18 04:08:04;;;;;;;2.13;1.40;;;11.50;99.90;;;;;;6163729;23;20439;-87
2022/09/18 04:10:32;;;;;;;2.47;1.43;;;11.60;99.90;;;;;;6161753;23;20427;-87
2022/09/18 04:12:59;;;;;;;2.20;1.10;;;11.60;99.90;;;;;;6171990;23;20390;-86
2022/09/18 04:15:28;;;;;;;2.70;1.40;;;11.60;99.90;;;;;;6181369;23;20392;-87
2022/09/18 04:17:55;;;;;;;5.33;1.37;;;11.50;99.90;;;;;;6158560;23;20901;-87
2022/09/18 04:20:22;;;;;;;1.60;1.07;;;11.50;99.90;;;;;;6163251;23;20411;-87
2022/09/18 04:22:49;;;;;;;4.23;1.20;;;11.50;99.90;;;;;;6164438;23;20407;-86
2022/09/18 04:25:16;;;;;;;1.40;1.00;;;11.50;99.90;;;;;;6174787;23;20415;-88
2022/09/18 04:27:44;;;;;;;3.13;1.43;;;11.50;99.90;;;;;;6160661;23;20449;-88
2022/09/18 04:30:13;;;;;;;2.33;1.33;;;11.50;99.90;;;;;;6160370;23;20429;-86
2022/09/18 04:32:40;;;;;;;1.70;1.17;;;11.50;99.90;;;;;;6161512;23;20411;-87
2022/09/18 04:35:08;;;;;;;1.73;1.03;;;11.50;99.90;;;;;;6161432;23;20465;-87
2022/09/18 04:37:34;;;;;;;2.40;1.13;;;11.50;99.90;;;;;;6159967;23;20395;-88
2022/09/18 04:40:01;;;;;;;2.77;1.03;;;11.50;99.90;;;;;;6169894;23;20396;-88
2022/09/18 04:42:28;;;;;;;2.63;1.60;;;11.50;99.90;;;;;;6170365;23;20443;-87
2022/09/18 04:44:57;;;;;;;3.00;1.60;;;11.50;99.90;;;;;;6163247;23;20439;-88
2022/09/18 04:47:24;;;;;;;3.73;1.27;;;11.50;99.90;;;;;;6163239;23;20443;-87
2022/09/18 04:49:51;;;;;;;1.50;1.40;;;11.50;99.90;;;;;;6160146;23;20399;-87
2022/09/18 04:52:18;;;;;;;1.50;1.00;;;11.50;99.90;;;;;;6162000;23;20462;-87
2022/09/18 04:54:45;;;;;;;2.70;1.33;;;11.50;99.90;;;;;;6159345;23;20415;-88
2022/09/18 04:57:12;;;;;;;4.23;1.57;;;11.50;99.90;;;;;;6158102;23;20875;-87
2022/09/18 04:59:39;;;;;;;2.20;1.10;;;11.50;99.90;;;;;;6162087;23;20391;-88
2022/09/18 05:02:06;;;;;;;5.20;1.47;;;11.50;99.90;;;;;;6183856;23;20439;-88
2022/09/18 05:04:33;;;;;;;2.63;1.40;;;11.50;99.90;;;;;;6182238;23;20412;-87
2022/09/18 05:07:00;;;;;;;3.33;1.63;;;11.50;99.90;;;;;;6180222;23;20403;-87
2022/09/18 05:09:27;;;;;;;2.90;1.30;;;11.50;99.90;;;;;;6165511;23;20914;-88
2022/09/18 05:11:54;;;;;;;3.30;1.43;;;11.60;99.90;;;;;;6161612;23;20431;-87
2022/09/18 05:14:20;;;;;;;2.27;1.27;;;11.60;99.90;;;;;;6156343;23;20407;-86
2022/09/18 05:16:47;;;;;;;1.30;1.20;;;11.50;99.90;;;;;;6164284;23;20399;-87
2022/09/18 05:19:15;;;;;;;2.30;1.70;;;11.50;99.90;;;;;;6174645;23;20422;-87
2022/09/18 05:21:42;;;;;;;2.00;1.60;;;11.60;99.90;;;;;;6158420;23;20442;-86
2022/09/18 05:24:09;;;;;;;4.23;1.80;;;11.50;99.90;;;;;;6157148;23;20411;-86
2022/09/18 05:26:35;;;;;;;3.03;1.33;;;11.50;99.90;;;;;;6157248;23;20414;-86
2022/09/18 05:29:02;;;;;;;1.97;1.20;;;11.50;99.90;;;;;;6156350;23;20446;-85
2022/09/18 05:31:29;;;;;;;6.00;1.80;;;11.50;99.90;;;;;;6157791;23;20431;-86
2022/09/18 05:33:55;;;;;;;2.93;1.80;;;11.60;99.90;;;;;;6158027;23;20423;-86
2022/09/18 05:36:24;;;;;;;4.80;2.03;;;11.50;99.90;;;;;;6157745;23;20747;-86
2022/09/18 05:38:51;;;;;;;2.63;1.70;;;11.60;99.90;;;;;;6164153;23;20742;-87
2022/09/18 05:41:18;;;;;;;2.87;1.67;;;11.50;99.90;;;;;;6170915;23;20412;-86
2022/09/18 05:43:44;;;;;;;7.23;2.10;;;11.60;99.90;;;;;;6157726;23;20403;-86
2022/09/18 05:46:13;;;;;;;3.70;1.67;;;11.50;99.90;;;;;;6156763;23;20421;-86
2022/09/18 05:48:40;;;;;;;3.63;2.17;;;11.50;99.90;;;;;;6177068;23;20446;-87
2022/09/18 05:51:06;;;;;;;2.87;2.57;;;11.50;99.90;;;;;;6182639;23;20434;-87
2022/09/18 05:53:34;;;;;;;3.70;2.40;;;11.60;99.90;;;;;;6169551;23;20415;-87
2022/09/18 05:56:01;;;;;;;4.73;4.23;;;11.50;99.90;;;;;;6159522;23;20438;-86
2022/09/18 05:58:28;;;;;;;1.90;1.50;;;11.60;99.90;;;;;;6156805;23;20418;-87
2022/09/18 06:00:57;;;;;;;2.50;2.00;;;11.60;99.90;;;;;;6157471;23;20527;-86
2022/09/18 06:03:24;;;;;;;3.30;1.57;;;11.60;99.90;;;;;;6157881;23;20733;-86
2022/09/18 06:05:53;;;;;;;2.90;2.03;;;11.60;99.90;;;;;;6165001;23;20411;-87
2022/09/18 06:08:20;;;;;;;3.17;2.10;;;11.60;99.90;;;;;;6178033;23;20443;-87
2022/09/18 06:10:48;;;;;;;3.23;1.90;;;11.50;99.90;;;;;;6176190;23;20461;-87
2022/09/18 06:13:17;;;;;;;3.20;1.70;;;11.60;99.90;;;;;;6168808;23;20435;-86
2022/09/18 06:15:44;;;;;;;2.77;1.90;;;11.60;99.90;;;;;;6159932;23;20413;-86
2022/09/18 06:18:13;;;;;;;2.60;2.10;;;11.60;99.90;;;;;;6157396;23;20407;-86
2022/09/18 06:20:40;;;;;;;4.90;2.47;;;11.50;99.90;;;;;;6161503;23;20486;-87
2022/09/18 06:23:07;;;;;;;3.33;1.87;;;11.50;99.90;;;;;;6166874;23;20421;-85
2022/09/18 06:25:33;;;;;;;4.37;2.17;;;11.50;99.90;;;;;;6157409;23;20395;-87
2022/09/18 06:28:02;;;;;;;3.23;1.93;;;11.50;99.90;;;;;;6157279;23;20448;-87
2022/09/18 06:30:31;;;;;;;2.97;2.27;;;11.50;99.90;;;;;;6157417;23;20442;-87
2022/09/18 06:33:01;;;;;;;5.67;2.27;;;11.50;99.90;;;;;;6166475;23;20443;-87
2022/09/18 06:35:28;;;;;;;3.17;2.07;;;11.40;99.90;;;;;;6164376;23;21063;-87
2022/09/18 06:37:54;;;;;;;5.97;2.10;;;11.50;99.90;;;;;;6157144;23;20407;-87
2022/09/18 06:40:22;;;;;;;3.30;2.23;;;11.50;99.90;;;;;;6157645;23;20463;-87
2022/09/18 06:42:55;;;;;;;2.50;1.77;;;11.50;99.90;;;;;;6161243;23;20419;-85
2022/09/18 06:45:23;;;;;;;5.83;2.17;;;11.50;99.90;;;;;;6167909;23;20402;-87
2022/09/18 06:47:53;;;;;;;3.20;2.00;;;11.60;99.90;;;;;;6158611;23;20443;-87
2022/09/18 06:50:20;;;;;;;2.90;2.43;;;11.60;99.90;;;;;;6159258;23;20418;-87
2022/09/18 06:52:47;;;;;;;3.87;2.03;;;11.60;99.90;;;;;;6174972;23;20447;-87
2022/09/18 06:55:14;;;;;;;3.57;2.10;;;11.70;99.90;;;;;;6168782;23;20421;-86
2022/09/18 06:57:41;;;;;;;4.27;2.63;;;11.60;99.90;;;;;;6159403;23;20485;-87
2022/09/18 07:00:09;;;;;;;2.80;1.93;;;11.60;99.90;;;;;;6160842;23;20418;-88
2022/09/18 07:02:37;;;;;;;3.50;2.27;;;11.60;99.90;;;;;;6179131;23;20427;-88
2022/09/18 07:05:05;;;;;;;6.97;2.10;;;11.60;99.90;;;;;;6179174;23;20403;-88
2022/09/18 07:07:31;;;;;;;2.97;2.30;;;11.60;99.90;;;;;;6166820;23;20898;-87
2022/09/18 07:09:58;;;;;;;4.00;2.80;;;11.60;99.90;;;;;;6170636;23;20399;-88
2022/09/18 07:12:27;;;;;;;2.37;2.17;;;11.70;99.90;;;;;;6158814;23;20430;-88
2022/09/18 07:14:54;;;;;;;2.00;1.80;;;11.90;99.90;;;;;;6156174;23;20411;-87
2022/09/18 07:17:20;;;;;;;3.47;2.53;;;12.00;99.90;;;;;;6156860;23;20425;-87
2022/09/18 07:19:55;;;;;;;3.20;2.33;;;12.10;99.90;;;;;;6156941;23;20411;-88
2022/09/18 07:22:22;;;;;;;4.13;2.40;;;12.30;99.90;;;;;;6163799;23;20438;-86
2022/09/18 07:24:50;;;;;;;3.17;2.03;;;12.30;99.90;;;;;;6157511;23;20442;-86
2022/09/18 07:27:17;;;;;;;3.63;2.23;;;12.30;99.90;;;;;;6169938;23;20403;-87
2022/09/18 07:29:50;;;;;;;3.00;2.00;;;12.40;99.90;;;;;;6167355;23;20537;-86
2022/09/18 07:32:21;;;;;;;2.80;1.87;;;12.40;99.90;;;;;;6158091;23;20514;-87
2022/09/18 07:34:49;;;;;;;3.10;2.50;;;12.40;99.90;;;;;;6156759;23;20411;-88
2022/09/18 07:37:17;;;;;;;3.50;1.70;;;12.50;99.90;;;;;;6159601;23;20466;-87
2022/09/18 07:39:46;;;;;;;3.47;2.03;;;12.50;99.90;;;;;;6176656;23;20419;-88
2022/09/18 07:42:13;;;;;;;4.83;3.20;;;12.60;99.90;;;;;;6176227;23;20856;-88
2022/09/18 07:44:40;;;;;;;5.50;2.50;;;12.70;99.90;;;;;;6161656;23;20419;-88
2022/09/18 07:47:07;;;;;;;4.17;1.67;;;12.80;99.90;;;;;;6166508;23;20397;-88
2022/09/18 07:49:36;;;;;;;2.80;2.23;;;12.90;99.90;;;;;;6182458;23;20462;-87
2022/09/18 07:52:08;;;;;;;3.83;2.03;;;12.90;99.90;;;;;;6158847;23;20470;-87
2022/09/18 07:54:35;;;;;;;2.60;1.77;;;13.00;99.90;;;;;;6159791;23;20454;-87
2022/09/18 07:57:04;;;;;;;2.73;1.40;;;13.00;99.90;;;;;;6158172;23;20400;-86
2022/09/18 07:59:31;;;;;;;2.93;1.70;;;12.90;99.90;;;;;;6158185;23;20407;-86
2022/09/18 08:02:00;;;;;;;5.10;2.33;;;12.90;99.90;;;;;;6159384;23;21020;-86
2022/09/18 08:04:27;;;;;;;3.30;1.40;;;13.00;99.90;;;;;;6166110;23;20387;-86
2022/09/18 08:06:56;;;;;;;6.03;2.20;;;13.00;99.90;;;;;;6182427;23;20425;-86
2022/09/18 08:09:25;;;;;;;2.47;1.43;;;13.00;99.90;;;;;;6167809;23;20439;-86
2022/09/18 08:11:52;;;;;;;4.20;1.77;;;13.10;99.90;;;;;;6161015;23;20462;-86
2022/09/18 08:14:19;;;;;;;2.43;1.63;;;13.20;99.90;;;;;;6165920;23;20442;-86
2022/09/18 08:16:46;;;;;;;1.97;1.50;;;13.30;99.90;;;;;;6176545;23;20431;-87
2022/09/18 08:19:13;;;;;;;2.60;1.30;;;13.30;99.90;;;;;;6185018;23;20422;-83
2022/09/18 08:21:40;;;;;;;2.73;1.80;;;13.30;99.90;;;;;;6183621;23;20410;-84
2022/09/18 08:24:12;;;;;;;3.00;2.00;;;13.40;99.90;;;;;;6162422;23;20410;-86
2022/09/18 08:26:40;;;;;;;3.80;1.53;;;13.50;99.90;;;;;;6174670;23;20466;-80
2022/09/18 08:29:07;;;;;;;3.60;1.40;;;13.60;99.90;;;;;;6169422;23;20454;-80
2022/09/18 08:31:35;;;;;;;1.60;1.30;;;13.60;99.90;;;;;;6159723;23;20447;-79
2022/09/18 08:34:01;;;;;;;2.80;1.67;;;13.50;99.90;;;;;;6161275;23;20415;-79
2022/09/18 08:36:28;;;;;;;3.67;1.70;;;13.30;99.90;;;;;;6179011;23;20735;-79
2022/09/18 08:38:55;;;;;;;6.70;1.80;;;13.40;99.90;;;;;;6169884;23;20403;-85
2022/09/18 08:41:59;;;;;;;3.10;1.30;;;13.40;99.90;;;;;;6172049;23;20416;-91
2022/09/18 08:44:54;;;;;;;2.57;1.50;;;13.50;99.90;;;;;;6167456;23;20932;-87
2022/09/18 08:48:13;;;;;;;;;;;;;;;;;;;;;
2022/09/18 08:51:12;;;;;;;3.93;1.50;;;13.70;99.90;;;;;;6172751;23;20415;-88
2022/09/18 09:00:49;;;;;;;2.87;1.50;;;13.70;99.90;;;;;;6149842;23;20995;-88
2022/09/18 09:10:41;;;;;;;5.37;2.03;;;14.00;99.90;;;;;;5889696;23;20974;-89
2022/09/18 09:48:41;;;;;;;3.17;2.03;;;14.00;99.90;;;;;;6155675;23;20501;-85
2022/09/18 09:51:15;;;;;;;2.93;1.80;;;14.00;99.90;;;;;;6159975;23;20466;-84
2022/09/18 09:53:48;;;;;;;4.07;2.00;;;14.10;99.90;;;;;;6169249;23;20419;-84
2022/09/18 09:56:31;;;;;;;4.10;2.27;;;14.30;99.90;;;;;;6176251;23;20439;-85
2022/09/18 09:59:04;;;;;;;4.20;2.33;;;14.20;99.90;;;;;;6176865;23;20387;-86
2022/09/18 10:01:33;;;;;;;8.13;3.40;;;14.10;99.90;;;;;;6172568;23;20392;-85
2022/09/18 10:04:17;;;;;;;3.97;2.10;;;14.20;99.90;;;;;;6170544;23;20462;-86
2022/09/18 10:06:51;;;;;;;4.20;1.43;;;14.20;99.90;;;;;;6159684;23;20428;-86
2022/09/18 10:09:25;;;;;;;2.80;2.20;;;14.10;99.90;;;;;;6161770;23;20412;-86
2022/09/18 10:11:58;;;;;;;2.70;1.60;;;14.30;99.90;;;;;;6164100;23;20396;-86
2022/09/18 10:14:27;;;;;;;3.10;2.00;;;14.50;99.90;;;;;;6166588;23;20415;-86
2022/09/18 10:16:56;;;;;;;3.47;1.77;;;14.90;99.90;;;;;;6158205;23;20485;-86
2022/09/18 10:19:37;;;;;;;3.60;2.17;;;15.40;99.90;;;;;;6155037;23;20462;-86
2022/09/18 10:22:07;;;;;;;6.23;4.80;;;15.60;99.90;;;;;;6156816;23;20485;-87
2022/09/18 10:24:44;;;;;;;6.43;3.93;;;15.60;99.90;;;;;;6155657;23;20399;-87
2022/09/18 10:27:12;;;;;;;2.90;1.90;;;15.70;99.90;;;;;;6155558;23;20395;-87
2022/09/18 10:29:39;;;;;;;2.67;1.77;;;15.40;99.90;;;;;;6154930;23;20443;-87
2022/09/18 10:32:09;;;;;;;2.90;1.47;;;15.50;99.90;;;;;;6158888;23;20434;-86
2022/09/18 10:34:43;;;;;;;2.80;1.40;;;15.80;99.90;;;;;;6176276;23;20399;-86
2022/09/18 10:37:36;;;;;;;3.23;1.40;;;15.90;99.90;;;;;;6162687;23;20400;-86
2022/09/18 10:40:06;;;;;;;4.70;1.40;;;15.90;99.90;;;;;;6155715;23;20396;-86
2022/09/18 10:42:34;;;;;;;3.83;1.30;;;15.80;99.90;;;;;;6167358;23;20390;-85
2022/09/18 10:45:04;;;;;;;7.20;1.50;;;15.90;99.90;;;;;;6180881;23;20420;-87
2022/09/18 10:47:45;;;;;;;2.80;1.57;;;16.20;99.70;;;;;;6156741;23;20404;-87
2022/09/18 10:50:19;;;;;;;3.93;1.40;;;16.30;98.70;;;;;;6158442;23;20434;-84
2022/09/18 10:52:46;;;;;;;2.40;1.47;;;16.20;98.20;;;;;;6167053;23;20842;-84
2022/09/18 10:55:16;;;;;;;3.10;1.20;;;16.40;97.10;;;;;;6172650;23;20443;-84
2022/09/18 10:57:44;;;;;;;2.60;1.07;;;16.70;96.80;;;;;;6168459;23;20396;-87
2022/09/18 11:00:33;;;;;;;7.93;3.90;;;17.40;96.10;;;;;;6169030;23;20944;-86
2022/09/18 11:03:07;;;;;;;5.70;3.70;;;18.50;94.10;;;;;;6163344;23;20399;-86
2022/09/18 11:05:36;;;;;;;5.40;2.93;;;19.10;93.10;;;;;;6154690;23;20435;-86
2022/09/18 11:08:13;;;;;;;7.40;3.87;;;19.30;91.20;;;;;;6153837;23;20407;-87
2022/09/18 11:10:40;;;;;;;2.70;1.47;;;19.90;88.90;;;;;;6154513;23;20431;-87
2022/09/18 11:13:19;;;;;;;3.93;1.43;;;20.70;83.50;;;;;;6160950;23;20415;-88
2022/09/18 11:15:52;;;;;;;2.70;1.30;;;20.30;80.90;;;;;;6176997;23;20473;-86
2022/09/18 11:18:23;;;;;;;3.00;1.20;;;20.40;77.30;;;;;;6181656;23;20391;-87
2022/09/18 11:20:56;;;;;;;4.47;2.40;;;20.00;79.30;;;;;;6156982;23;20478;-88
2022/09/18 11:23:27;;;;;;;4.63;1.70;;;20.00;79.60;;;;;;6156791;23;20399;-87
2022/09/18 11:26:11;;;;;;;2.33;1.60;;;20.30;77.90;;;;;;6156368;23;20431;-90
2022/09/18 11:28:39;;;;;;;8.87;5.00;;;20.70;73.50;;;;;;6156543;23;20414;-87
2022/09/18 11:31:11;;;;;;;5.67;3.43;;;20.90;72.30;;;;;;6156884;23;21050;-88
2022/09/18 11:33:58;;;;;;;5.93;3.53;;;21.30;68.40;;;;;;6157561;23;21031;-88
2022/09/18 12:17:48;;;;;;;2.60;1.43;;;20.60;61.60;;;;;;5672998;25;20444;-88
2022/09/18 12:20:22;;;;;;;4.13;1.67;;;22.40;58.60;;;;;;5848909;23;20402;-88
2022/09/18 12:22:53;;;;;;;5.00;1.67;;;23.40;58.10;;;;;;6161309;23;20395;-88
2022/09/18 12:25:26;;;;;;;3.93;1.30;;;24.20;55.30;;;;;;6157808;23;20435;-88
2022/09/18 12:28:03;;;;;;;3.20;2.17;;;24.00;54.90;;;;;;6156704;23;20726;-88
2022/09/18 12:30:43;;;;;;;3.33;1.37;;;23.60;54.10;;;;;;6157777;23;20434;-88
2022/09/18 13:54:19;;;;;;;3.90;1.03;;;17.40;67.20;;;;;;5923334;23;20409;-88
2022/09/18 13:57:20;;;;;;;2.67;1.33;;;17.40;67.30;;;;;;6130515;23;20447;-88
2022/09/18 13:59:54;;;;;;;1.97;1.10;;;17.60;66.60;;;;;;6166348;23;20385;-87
2022/09/18 14:34:00;;;;;;;13.17;7.43;;;17.80;68.80;;;;;;5851776;24;20728;-87
2022/09/18 14:36:27;;;;;;;10.97;7.77;;;17.70;69.30;;;;;;5955213;24;20723;-88
2022/09/18 14:38:53;;;;;;;8.57;4.63;;;17.60;68.80;;;;;;6147936;23;20403;-87
2022/09/18 14:41:27;;;;;;;7.60;4.43;;;17.50;69.30;;;;;;6159287;23;20400;-89
2022/09/18 15:28:10;;;;;;;6.60;3.83;;;16.50;71.00;;;;;;5771838;24;20450;-85
2022/09/18 15:42:57;;;;;;;2.60;1.90;;;16.20;73.20;;;;;;6012484;23;20434;-84
2022/09/18 15:45:27;;;;;;;3.50;1.77;;;16.20;73.50;;;;;;6025794;23;20391;-86
2022/09/18 15:47:54;;;;;;;3.00;1.80;;;16.10;73.70;;;;;;6012441;23;20396;-86
2022/09/18 15:50:37;;;;;;;6.63;3.70;;;16.10;73.60;;;;;;6102504;23;20474;-85
2022/09/18 15:53:20;;;;;;;3.63;2.60;;;16.10;74.00;;;;;;6112170;23;20421;-88
2022/09/18 15:55:55;;;;;;;4.20;2.60;;;16.00;74.60;;;;;;6117072;23;20425;-84
2022/09/18 15:58:49;;;;;;;4.47;2.47;;;16.00;75.50;;;;;;6117344;23;20380;-84
2022/09/18 16:01:22;;;;;;;8.03;4.00;;;16.10;76.50;;;;;;6099023;23;20413;-84
2022/09/18 16:04:00;;;;;;;7.70;5.00;;;16.00;75.50;;;;;;6103494;23;20792;-85
2022/09/18 16:06:29;;;;;;;6.83;4.10;;;16.00;76.30;;;;;;6101665;23;20436;-84
2022/09/18 16:08:57;;;;;;;13.10;6.03;;;16.00;76.30;;;;;;6102291;23;20428;-84
2022/09/18 16:11:43;;;;;;;11.13;6.93;;;16.00;76.40;;;;;;6106097;23;20444;-84
2022/09/18 16:14:45;;;;;;;6.10;4.10;;;15.90;75.50;;;;;;6109446;23;20476;-85
2022/09/18 16:17:36;;;;;;;5.23;2.03;;;15.90;74.80;;;;;;6112009;23;20516;-86
2022/09/18 16:20:33;;;;;;;10.40;5.50;;;15.90;74.70;;;;;;6105112;23;20413;-87
2022/09/18 16:23:22;;;;;;;22.13;11.63;;;15.80;75.80;;;;;;6101705;23;20408;-84
2022/09/18 16:26:04;;;;;;;16.07;10.70;;;15.80;75.50;;;;;;6106569;23;20472;-85
2022/09/18 16:28:34;;;;;;;16.10;10.93;;;15.80;75.90;;;;;;6106345;23;20751;-85
2022/09/18 16:31:05;;;;;;;7.97;6.37;;;15.80;75.60;;;;;;6104671;23;20432;-84
2022/09/18 16:33:33;;;;;;;6.47;4.73;;;15.80;75.30;;;;;;6115878;23;20433;-84
2022/09/18 16:36:02;;;;;;;5.20;1.67;;;15.80;76.20;;;;;;6120431;23;20501;-84
2022/09/18 16:38:37;;;;;;;3.40;2.27;;;15.70;74.80;;;;;;6122245;23;20419;-85
2022/09/18 16:41:04;;;;;;;6.10;4.10;;;15.70;75.10;;;;;;6117837;23;20385;-85
2022/09/18 16:43:32;;;;;;;4.10;2.17;;;15.60;75.30;;;;;;6112910;23;20460;-85
2022/09/18 16:45:58;;;;;;;3.50;2.33;;;15.60;74.40;;;;;;6107136;23;20433;-86
2022/09/18 16:48:25;;;;;;;9.43;6.40;;;15.60;76.40;;;;;;6105525;23;20412;-85
2022/09/18 16:50:52;;;;;;;9.03;6.10;;;15.60;76.90;;;;;;6103775;23;20452;-86
2022/09/18 16:53:19;;;;;;;4.67;2.40;;;15.50;76.70;;;;;;6103914;23;20416;-85
2022/09/18 16:55:51;;;;;;;4.70;3.20;;;15.60;75.80;;;;;;6101917;23;20480;-86
2022/09/18 16:58:19;;;;;;;24.40;14.60;;;15.60;75.50;;;;;;6101625;23;20420;-84
2022/09/18 17:00:47;;;;;;;15.23;8.20;;;15.50;76.50;;;;;;6101844;23;20409;-86
2022/09/18 17:03:16;;;;;;;12.83;7.10;;;15.50;76.40;;;;;;6101872;23;20409;-85
2022/09/18 17:05:43;;;;;;;6.50;3.47;;;15.50;75.80;;;;;;6102237;23;20433;-84
2022/09/18 17:08:10;;;;;;;3.73;2.73;;;15.50;75.90;;;;;;6101829;23;20409;-85
2022/09/18 17:10:38;;;;;;;4.07;2.17;;;15.50;77.10;;;;;;6101590;23;20444;-89
2022/09/18 17:13:05;;;;;;;3.63;2.13;;;15.40;77.50;;;;;;6107128;23;20722;-88
2022/09/18 17:15:32;;;;;;;9.50;3.20;;;15.40;77.50;;;;;;6103282;23;20496;-88
2022/09/18 17:18:00;;;;;;;5.90;2.20;;;15.40;77.30;;;;;;6110228;23;20409;-87
2022/09/18 17:20:51;;;;;;;6.67;2.43;;;15.40;77.20;;;;;;6119945;23;20504;-88
2022/09/18 17:23:18;;;;;;;4.37;2.00;;;15.40;76.90;;;;;;6124802;23;20391;-89
2022/09/18 17:25:45;;;;;;;2.63;2.20;;;15.40;77.10;;;;;;6121178;23;20448;-88
2022/09/18 17:28:16;;;;;;;3.93;1.70;;;15.30;77.20;;;;;;6104545;23;20463;-88